Medi Baltimore — ICLW — position and weather

sailwx.info

Track history (hours):
 
Tides and Currents Weather Stations Pressure Air Temp Water Temp Dewpoint Dewpoint Depression Visibility Wind Speed Wind Dir Waves Ship Positions

Medi Baltimore

Last reported at 2016-Apr-12 21:19 UTC. Time now 2016-May-03 02:59 UTC.
Position S 24°23' W 046°16'.
Warning: this ship's position is 20 days out of date.

Length 225 m; draft 12.1 m.

Type: Cargo ship. MMSI: 247255300.

Date/timePositionNaut miles runAvg speedWind from/ knotsBaromVisibWave heightAir tempDewpointWater temp
2016-Apr-12 21:19S 24°23' W 046°16'7 9.7
2016-Apr-12 20:33S 24°17' W 046°21'1110.5
2016-Apr-12 19:33S 24°07' W 046°23'4 4.3
2016-Apr-12 18:33S 24°03' W 046°20'0 0.1
2016-Apr-12 17:28S 24°03' W 046°20'0 0.0
2016-Apr-12 16:31S 24°03' W 046°20'0 0.0
2016-Apr-12 15:31S 24°03' W 046°20'0 0.0
2016-Apr-12 14:31S 24°03' W 046°20'0 0.0
2016-Apr-12 13:25S 24°03' W 046°20'0 0.0
2016-Apr-12 12:28S 24°03' W 046°20'0 0.1
2016-Apr-12 11:31S 24°03' W 046°20'3 2.8
2016-Apr-12 10:33S 24°05' W 046°18'1 0.8
2016-Apr-12 09:33S 24°05' W 046°17'0 0.0
2016-Apr-12 08:28S 24°05' W 046°17'0 0.0
2016-Apr-12 07:33S 24°05' W 046°17'0 0.0
2016-Apr-12 06:28S 24°05' W 046°17'0 0.0
2016-Apr-12 05:33S 24°05' W 046°17'0 0.0
2016-Apr-12 04:33S 24°05' W 046°17'0 0.0
2016-Apr-12 03:30S 24°05' W 046°17'0 0.0
2016-Apr-12 02:33S 24°05' W 046°17'0 0.1
2016-Apr-12 01:34S 24°05' W 046°17'0 0.1
2016-Apr-12 00:33S 24°05' W 046°17'0 0.0
2016-Apr-11 23:09S 24°05' W 046°17'0 0.1
2016-Apr-11 22:30S 24°05' W 046°17'0 0.0
2016-Apr-11 21:33S 24°05' W 046°17'0 0.1
2016-Apr-11 20:33S 24°05' W 046°17'0 0.0
2016-Apr-11 19:21S 24°05' W 046°17'0 0.1
2016-Apr-11 18:18S 24°05' W 046°17'0 0.0
2016-Apr-11 17:30S 24°05' W 046°17'0 0.0
2016-Apr-11 16:33S 24°05' W 046°17'0 0.0
2016-Apr-11 15:24S 24°05' W 046°17'0 0.0
2016-Apr-11 14:33S 24°05' W 046°17'0 0.1
2016-Apr-11 13:27S 24°05' W 046°17'0 0.0
2016-Apr-11 12:33S 24°05' W 046°17'0 0.0
2016-Apr-11 11:30S 24°05' W 046°17'0 0.0
2016-Apr-11 10:33S 24°05' W 046°17'0 0.0
2016-Apr-11 09:33S 24°05' W 046°17'0 0.0
2016-Apr-11 08:33S 24°05' W 046°17'0 0.0
2016-Apr-11 07:33S 24°05' W 046°17'0 0.0
2016-Apr-11 06:33S 24°05' W 046°17'0 0.0
2016-Apr-11 05:33S 24°05' W 046°17'0 0.0
2016-Apr-11 04:33S 24°05' W 046°17'0 0.0
2016-Apr-11 03:33S 24°05' W 046°17'0 0.0
2016-Apr-11 02:27S 24°05' W 046°17'0 0.0
2016-Apr-11 01:33S 24°05' W 046°17'0 0.0
2016-Apr-11 00:33S 24°05' W 046°17'0 0.1
2016-Apr-10 23:21S 24°05' W 046°17'0 0.1
2016-Apr-10 22:33S 24°05' W 046°17'1 0.6
2016-Apr-10 21:33S 24°05' W 046°18'6 5.6
2016-Apr-10 20:33S 23°60' W 046°19'3 0.1
2016-Apr-09 00:08S 23°57' W 046°19'2 2.8
2016-Apr-08 23:32S 23°58' W 046°18'5 5.4
2016-Apr-08 22:33S 24°03' W 046°19'4 3.8
2016-Apr-08 21:31S 24°06' W 046°16'0 0.0
2016-Apr-08 20:25S 24°06' W 046°16'0 0.1
2016-Apr-08 19:31S 24°06' W 046°16'0 0.1
2016-Apr-08 18:28S 24°06' W 046°16'0 0.0
2016-Apr-08 17:28S 24°06' W 046°16'0 0.1
2016-Apr-08 16:31S 24°06' W 046°16'0 0.0
2016-Apr-08 15:28S 24°06' W 046°16'0 0.0
2016-Apr-08 14:31S 24°06' W 046°16'0 0.0
2016-Apr-08 13:31S 24°06' W 046°16'0 0.0
2016-Apr-08 12:31S 24°06' W 046°16'0 0.0
2016-Apr-08 11:31S 24°06' W 046°16'0 0.0
2016-Apr-08 10:19S 24°06' W 046°16'0 0.0
2016-Apr-08 09:28S 24°06' W 046°16'0 0.0
2016-Apr-08 08:31S 24°06' W 046°16'0 0.0
2016-Apr-08 07:16S 24°06' W 046°16'0 0.0
2016-Apr-08 06:31S 24°06' W 046°16'0 0.0
2016-Apr-08 05:19S 24°06' W 046°16'0 0.0
2016-Apr-08 04:31S 24°06' W 046°16'0 0.0
2016-Apr-08 03:31S 24°06' W 046°16'0 0.0
2016-Apr-08 02:31S 24°06' W 046°16'0 0.0
2016-Apr-08 01:34S 24°06' W 046°16'0 0.0
2016-Apr-08 00:31S 24°06' W 046°16'0 0.1
2016-Apr-07 23:33S 24°06' W 046°16'0 0.1
2016-Apr-07 22:34S 24°06' W 046°16'0 0.0
2016-Apr-07 21:27S 24°06' W 046°16'0 0.1
2016-Apr-07 20:25S 24°06' W 046°16'0 0.1
2016-Apr-07 19:33S 24°06' W 046°16'0 0.1
2016-Apr-07 18:33S 24°06' W 046°16'0 0.1
2016-Apr-07 17:34S 24°06' W 046°16'0 0.0
2016-Apr-07 16:31S 24°06' W 046°16'0 0.0
2016-Apr-07 15:19S 24°06' W 046°16'0 0.0
2016-Apr-07 14:31S 24°06' W 046°16'0 0.0
2016-Apr-07 13:33S 24°06' W 046°16'0 0.0
2016-Apr-07 12:30S 24°06' W 046°16'0 0.0
2016-Apr-07 11:18S 24°06' W 046°16'0 0.0
2016-Apr-07 10:24S 24°06' W 046°16'0 0.0
2016-Apr-07 09:28S 24°06' W 046°16'0 0.0
2016-Apr-07 08:33S 24°06' W 046°16'0 0.0
2016-Apr-07 07:33S 24°06' W 046°16'0 0.0
2016-Apr-07 06:21S 24°06' W 046°16'0 0.0
2016-Apr-07 04:33S 24°06' W 046°16'0 0.0
2016-Apr-07 03:24S 24°06' W 046°16'0 0.0
2016-Apr-07 02:33S 24°06' W 046°16'0 0.0
2016-Apr-07 01:24S 24°06' W 046°16'0 0.0
2016-Apr-07 00:33S 24°06' W 046°16'0 0.0
2016-Apr-06 23:06S 24°06' W 046°16'0 0.0
2016-Apr-06 22:30S 24°06' W 046°16'0 0.0
2016-Apr-06 21:30S 24°06' W 046°16'0 0.0
2016-Apr-06 20:33S 24°06' W 046°16'0 0.0
2016-Apr-06 19:33S 24°06' W 046°16'0 0.0
2016-Apr-06 16:03S 24°06' W 046°16'0 0.0
2016-Apr-06 15:30S 24°06' W 046°16'0 0.0
2016-Apr-06 13:33S 24°06' W 046°16'0 0.0
2016-Apr-06 12:24S 24°06' W 046°16'0 0.0
2016-Apr-06 11:30S 24°06' W 046°16'0 0.0
2016-Apr-06 10:30S 24°06' W 046°16'0 0.0
2016-Apr-06 09:30S 24°06' W 046°16'0 0.0
2016-Apr-06 08:30S 24°06' W 046°16'0 0.0
2016-Apr-06 07:33S 24°06' W 046°16'0 0.0
2016-Apr-06 06:33S 24°06' W 046°16'0 0.0
2016-Apr-06 05:30S 24°06' W 046°16'0 0.0
2016-Apr-06 04:33S 24°06' W 046°16'0 0.0
2016-Apr-06 03:33S 24°06' W 046°16'0 0.0
2016-Apr-06 02:30S 24°06' W 046°16'0 0.0
2016-Apr-06 01:30S 24°06' W 046°16'0 0.0
2016-Apr-06 00:12S 24°06' W 046°16'0 0.0
2016-Apr-05 23:33S 24°06' W 046°16'0 0.0
2016-Apr-05 22:33S 24°06' W 046°16'0 0.0
2016-Apr-05 21:33S 24°06' W 046°16'0 0.0
2016-Apr-05 20:33S 24°06' W 046°16'0 0.0
2016-Apr-05 19:33S 24°06' W 046°16'0 0.1
2016-Apr-05 18:33S 24°06' W 046°16'3 3.1
2016-Apr-05 17:33S 24°04' W 046°19'2 2.2
2016-Apr-05 16:32S 24°06' W 046°17'0 0.0
2016-Apr-05 15:29S 24°06' W 046°17'0 0.0
2016-Apr-05 14:32S 24°06' W 046°17'0 0.0
2016-Apr-05 13:29S 24°06' W 046°17'0 0.0
2016-Apr-05 12:29S 24°06' W 046°17'0 0.0
2016-Apr-05 11:29S 24°06' W 046°17'0 0.0
2016-Apr-05 10:29S 24°06' W 046°17'0 0.0
2016-Apr-05 09:32S 24°06' W 046°17'0 0.0
2016-Apr-05 08:32S 24°06' W 046°17'0 0.0
2016-Apr-05 06:14S 24°06' W 046°17'0 0.0
2016-Apr-05 05:29S 24°06' W 046°17'0 0.0
2016-Apr-05 04:32S 24°06' W 046°17'0 0.0
2016-Apr-05 03:32S 24°06' W 046°17'0 0.0
2016-Apr-05 02:26S 24°06' W 046°17'0 0.0
2016-Apr-05 01:32S 24°06' W 046°17'0 0.0
2016-Apr-05 00:26S 24°06' W 046°17'0 0.1
2016-Apr-04 23:32S 24°06' W 046°17'2 2.0
2016-Apr-04 22:33S 24°04' W 046°18'1 1.2
2016-Apr-04 21:33S 24°03' W 046°19'2 1.7
2016-Apr-04 20:33S 24°01' W 046°20'0 0.0
2016-Apr-04 19:15S 24°01' W 046°20'0 0.0
2016-Apr-04 18:33S 24°01' W 046°20'4 3.5
2016-Apr-04 17:34S 24°04' W 046°18'2 2.1
2016-Apr-04 16:33S 24°03' W 046°20'3 3.3
2016-Apr-04 15:33S 24°05' W 046°22'5 4.6
2016-Apr-04 14:33S 24°09' W 046°19'0 0.2
2016-Apr-04 13:33S 24°09' W 046°19'0 0.0
2016-Apr-04 12:33S 24°09' W 046°19'0 0.0
2016-Apr-04 11:33S 24°09' W 046°19'0 0.0
2016-Apr-04 10:33S 24°09' W 046°19'0 0.1
2016-Apr-04 09:33S 24°09' W 046°19'0 0.1
2016-Apr-04 08:30S 24°09' W 046°19'0 0.1
2016-Apr-04 07:33S 24°09' W 046°19'0 0.0
2016-Apr-04 06:27S 24°09' W 046°19'0 0.0
2016-Apr-04 05:33S 24°09' W 046°19'0 0.0
2016-Apr-04 04:33S 24°09' W 046°19'0 0.0
2016-Apr-04 03:27S 24°09' W 046°19'0 0.0
2016-Apr-04 02:33S 24°09' W 046°19'0 0.0
2016-Apr-04 01:33S 24°09' W 046°19'0 0.0
2016-Apr-04 00:33S 24°09' W 046°19'0 0.0
2016-Apr-03 23:33S 24°09' W 046°19'0 0.0
2016-Apr-03 22:30S 24°09' W 046°19'0 0.0
2016-Apr-03 21:30S 24°09' W 046°19'0 0.0
2016-Apr-03 20:33S 24°09' W 046°19'0 0.0
2016-Apr-03 19:30S 24°09' W 046°19'0 0.0
2016-Apr-03 18:33S 24°09' W 046°19'0 0.0
2016-Apr-03 17:30S 24°09' W 046°19'0 0.0
2016-Apr-03 16:33S 24°09' W 046°19'0 0.0
2016-Apr-03 15:30S 24°09' W 046°19'0 0.0
2016-Apr-03 14:30S 24°09' W 046°19'0 0.0
2016-Apr-03 13:33S 24°09' W 046°19'0 0.1
2016-Apr-03 12:33S 24°09' W 046°19'0 0.1
2016-Apr-03 11:33S 24°09' W 046°19'0 0.1
2016-Apr-03 10:30S 24°09' W 046°19'0 0.0
2016-Apr-03 09:27S 24°09' W 046°19'0 0.1
2016-Apr-03 08:24S 24°09' W 046°19'0 0.1
2016-Apr-03 07:30S 24°09' W 046°19'0 0.0
2016-Apr-03 06:33S 24°09' W 046°19'0 0.0
2016-Apr-03 05:30S 24°09' W 046°19'0 0.0
2016-Apr-03 04:27S 24°09' W 046°19'0 0.0
2016-Apr-03 03:33S 24°09' W 046°19'0 0.0
2016-Apr-03 02:33S 24°09' W 046°19'0 0.0
2016-Apr-03 01:33S 24°09' W 046°19'0 0.0
2016-Apr-03 00:33S 24°09' W 046°19'0 0.0
2016-Apr-02 23:33S 24°09' W 046°19'0 0.0
2016-Apr-02 22:33S 24°09' W 046°19'0 0.0
2016-Apr-02 21:30S 24°09' W 046°19'  
Track history (hours):
 
Tides and Currents Weather Stations Pressure Air Temp Water Temp Dewpoint Dewpoint Depression Visibility Wind Speed Wind Dir Waves Ship Positions

Medi Baltimore

Last reported at 2016-Apr-12 21:19 UTC. Time now 2016-May-03 02:59 UTC.
Position S 24°23' W 046°16'.
Warning: this ship's position is 20 days out of date.

Length 225 m; draft 12.1 m.

Type: Cargo ship. MMSI: 247255300.

Date/timePositionNaut miles runAvg speedWind from/ knotsBaromVisibWave heightAir tempDewpointWater temp
2016-Apr-12 21:19S 24°23' W 046°16'7 9.7
2016-Apr-12 20:33S 24°17' W 046°21'1110.5
2016-Apr-12 19:33S 24°07' W 046°23'4 4.3
2016-Apr-12 18:33S 24°03' W 046°20'0 0.1
2016-Apr-12 17:28S 24°03' W 046°20'0 0.0
2016-Apr-12 16:31S 24°03' W 046°20'0 0.0
2016-Apr-12 15:31S 24°03' W 046°20'0 0.0
2016-Apr-12 14:31S 24°03' W 046°20'0 0.0
2016-Apr-12 13:25S 24°03' W 046°20'0 0.0
2016-Apr-12 12:28S 24°03' W 046°20'0 0.1
2016-Apr-12 11:31S 24°03' W 046°20'3 2.8
2016-Apr-12 10:33S 24°05' W 046°18'1 0.8
2016-Apr-12 09:33S 24°05' W 046°17'0 0.0
2016-Apr-12 08:28S 24°05' W 046°17'0 0.0
2016-Apr-12 07:33S 24°05' W 046°17'0 0.0
2016-Apr-12 06:28S 24°05' W 046°17'0 0.0
2016-Apr-12 05:33S 24°05' W 046°17'0 0.0
2016-Apr-12 04:33S 24°05' W 046°17'0 0.0
2016-Apr-12 03:30S 24°05' W 046°17'0 0.0
2016-Apr-12 02:33S 24°05' W 046°17'0 0.1
2016-Apr-12 01:34S 24°05' W 046°17'0 0.1
2016-Apr-12 00:33S 24°05' W 046°17'0 0.0
2016-Apr-11 23:09S 24°05' W 046°17'0 0.1
2016-Apr-11 22:30S 24°05' W 046°17'0 0.0
2016-Apr-11 21:33S 24°05' W 046°17'0 0.1
2016-Apr-11 20:33S 24°05' W 046°17'0 0.0
2016-Apr-11 19:21S 24°05' W 046°17'0 0.1
2016-Apr-11 18:18S 24°05' W 046°17'0 0.0
2016-Apr-11 17:30S 24°05' W 046°17'0 0.0
2016-Apr-11 16:33S 24°05' W 046°17'0 0.0
2016-Apr-11 15:24S 24°05' W 046°17'0 0.0
2016-Apr-11 14:33S 24°05' W 046°17'0 0.1
2016-Apr-11 13:27S 24°05' W 046°17'0 0.0
2016-Apr-11 12:33S 24°05' W 046°17'0 0.0
2016-Apr-11 11:30S 24°05' W 046°17'0 0.0
2016-Apr-11 10:33S 24°05' W 046°17'0 0.0
2016-Apr-11 09:33S 24°05' W 046°17'0 0.0
2016-Apr-11 08:33S 24°05' W 046°17'0 0.0
2016-Apr-11 07:33S 24°05' W 046°17'0 0.0
2016-Apr-11 06:33S 24°05' W 046°17'0 0.0
2016-Apr-11 05:33S 24°05' W 046°17'0 0.0
2016-Apr-11 04:33S 24°05' W 046°17'0 0.0
2016-Apr-11 03:33S 24°05' W 046°17'0 0.0
2016-Apr-11 02:27S 24°05' W 046°17'0 0.0
2016-Apr-11 01:33S 24°05' W 046°17'0 0.0
2016-Apr-11 00:33S 24°05' W 046°17'0 0.1
2016-Apr-10 23:21S 24°05' W 046°17'0 0.1
2016-Apr-10 22:33S 24°05' W 046°17'1 0.6
2016-Apr-10 21:33S 24°05' W 046°18'6 5.6
2016-Apr-10 20:33S 23°60' W 046°19'3 0.1
2016-Apr-09 00:08S 23°57' W 046°19'2 2.8
2016-Apr-08 23:32S 23°58' W 046°18'5 5.4
2016-Apr-08 22:33S 24°03' W 046°19'4 3.8
2016-Apr-08 21:31S 24°06' W 046°16'0 0.0
2016-Apr-08 20:25S 24°06' W 046°16'0 0.1
2016-Apr-08 19:31S 24°06' W 046°16'0 0.1
2016-Apr-08 18:28S 24°06' W 046°16'0 0.0
2016-Apr-08 17:28S 24°06' W 046°16'0 0.1
2016-Apr-08 16:31S 24°06' W 046°16'0 0.0
2016-Apr-08 15:28S 24°06' W 046°16'0 0.0
2016-Apr-08 14:31S 24°06' W 046°16'0 0.0
2016-Apr-08 13:31S 24°06' W 046°16'0 0.0
2016-Apr-08 12:31S 24°06' W 046°16'0 0.0
2016-Apr-08 11:31S 24°06' W 046°16'0 0.0
2016-Apr-08 10:19S 24°06' W 046°16'0 0.0
2016-Apr-08 09:28S 24°06' W 046°16'0 0.0
2016-Apr-08 08:31S 24°06' W 046°16'0 0.0
2016-Apr-08 07:16S 24°06' W 046°16'0 0.0
2016-Apr-08 06:31S 24°06' W 046°16'0 0.0
2016-Apr-08 05:19S 24°06' W 046°16'0 0.0
2016-Apr-08 04:31S 24°06' W 046°16'0 0.0
2016-Apr-08 03:31S 24°06' W 046°16'0 0.0
2016-Apr-08 02:31S 24°06' W 046°16'0 0.0
2016-Apr-08 01:34S 24°06' W 046°16'0 0.0
2016-Apr-08 00:31S 24°06' W 046°16'0 0.1
2016-Apr-07 23:33S 24°06' W 046°16'0 0.1
2016-Apr-07 22:34S 24°06' W 046°16'0 0.0
2016-Apr-07 21:27S 24°06' W 046°16'0 0.1
2016-Apr-07 20:25S 24°06' W 046°16'0 0.1
2016-Apr-07 19:33S 24°06' W 046°16'0 0.1
2016-Apr-07 18:33S 24°06' W 046°16'0 0.1
2016-Apr-07 17:34S 24°06' W 046°16'0 0.0
2016-Apr-07 16:31S 24°06' W 046°16'0 0.0
2016-Apr-07 15:19S 24°06' W 046°16'0 0.0
2016-Apr-07 14:31S 24°06' W 046°16'0 0.0
2016-Apr-07 13:33S 24°06' W 046°16'0 0.0
2016-Apr-07 12:30S 24°06' W 046°16'0 0.0
2016-Apr-07 11:18S 24°06' W 046°16'0 0.0
2016-Apr-07 10:24S 24°06' W 046°16'0 0.0
2016-Apr-07 09:28S 24°06' W 046°16'0 0.0
2016-Apr-07 08:33S 24°06' W 046°16'0 0.0
2016-Apr-07 07:33S 24°06' W 046°16'0 0.0
2016-Apr-07 06:21S 24°06' W 046°16'0 0.0
2016-Apr-07 04:33S 24°06' W 046°16'0 0.0
2016-Apr-07 03:24S 24°06' W 046°16'0 0.0
2016-Apr-07 02:33S 24°06' W 046°16'0 0.0
2016-Apr-07 01:24S 24°06' W 046°16'0 0.0
2016-Apr-07 00:33S 24°06' W 046°16'0 0.0
2016-Apr-06 23:06S 24°06' W 046°16'0 0.0
2016-Apr-06 22:30S 24°06' W 046°16'0 0.0
2016-Apr-06 21:30S 24°06' W 046°16'0 0.0
2016-Apr-06 20:33S 24°06' W 046°16'0 0.0
2016-Apr-06 19:33S 24°06' W 046°16'0 0.0
2016-Apr-06 16:03S 24°06' W 046°16'0 0.0
2016-Apr-06 15:30S 24°06' W 046°16'0 0.0
2016-Apr-06 13:33S 24°06' W 046°16'0 0.0
2016-Apr-06 12:24S 24°06' W 046°16'0 0.0
2016-Apr-06 11:30S 24°06' W 046°16'0 0.0
2016-Apr-06 10:30S 24°06' W 046°16'0 0.0
2016-Apr-06 09:30S 24°06' W 046°16'0 0.0
2016-Apr-06 08:30S 24°06' W 046°16'0 0.0
2016-Apr-06 07:33S 24°06' W 046°16'0 0.0
2016-Apr-06 06:33S 24°06' W 046°16'0 0.0
2016-Apr-06 05:30S 24°06' W 046°16'0 0.0
2016-Apr-06 04:33S 24°06' W 046°16'0 0.0
2016-Apr-06 03:33S 24°06' W 046°16'0 0.0
2016-Apr-06 02:30S 24°06' W 046°16'0 0.0
2016-Apr-06 01:30S 24°06' W 046°16'0 0.0
2016-Apr-06 00:12S 24°06' W 046°16'0 0.0
2016-Apr-05 23:33S 24°06' W 046°16'0 0.0
2016-Apr-05 22:33S 24°06' W 046°16'0 0.0
2016-Apr-05 21:33S 24°06' W 046°16'0 0.0
2016-Apr-05 20:33S 24°06' W 046°16'0 0.0
2016-Apr-05 19:33S 24°06' W 046°16'0 0.1
2016-Apr-05 18:33S 24°06' W 046°16'3 3.1
2016-Apr-05 17:33S 24°04' W 046°19'2 2.2
2016-Apr-05 16:32S 24°06' W 046°17'0 0.0
2016-Apr-05 15:29S 24°06' W 046°17'0 0.0
2016-Apr-05 14:32S 24°06' W 046°17'0 0.0
2016-Apr-05 13:29S 24°06' W 046°17'0 0.0
2016-Apr-05 12:29S 24°06' W 046°17'0 0.0
2016-Apr-05 11:29S 24°06' W 046°17'0 0.0
2016-Apr-05 10:29S 24°06' W 046°17'0 0.0
2016-Apr-05 09:32S 24°06' W 046°17'0 0.0
2016-Apr-05 08:32S 24°06' W 046°17'0 0.0
2016-Apr-05 06:14S 24°06' W 046°17'0 0.0
2016-Apr-05 05:29S 24°06' W 046°17'0 0.0
2016-Apr-05 04:32S 24°06' W 046°17'0 0.0
2016-Apr-05 03:32S 24°06' W 046°17'0 0.0
2016-Apr-05 02:26S 24°06' W 046°17'0 0.0
2016-Apr-05 01:32S 24°06' W 046°17'0 0.0
2016-Apr-05 00:26S 24°06' W 046°17'0 0.1
2016-Apr-04 23:32S 24°06' W 046°17'2 2.0
2016-Apr-04 22:33S 24°04' W 046°18'1 1.2
2016-Apr-04 21:33S 24°03' W 046°19'2 1.7
2016-Apr-04 20:33S 24°01' W 046°20'0 0.0
2016-Apr-04 19:15S 24°01' W 046°20'0 0.0
2016-Apr-04 18:33S 24°01' W 046°20'4 3.5
2016-Apr-04 17:34S 24°04' W 046°18'2 2.1
2016-Apr-04 16:33S 24°03' W 046°20'3 3.3
2016-Apr-04 15:33S 24°05' W 046°22'5 4.6
2016-Apr-04 14:33S 24°09' W 046°19'0 0.2
2016-Apr-04 13:33S 24°09' W 046°19'0 0.0
2016-Apr-04 12:33S 24°09' W 046°19'0 0.0
2016-Apr-04 11:33S 24°09' W 046°19'0 0.0
2016-Apr-04 10:33S 24°09' W 046°19'0 0.1
2016-Apr-04 09:33S 24°09' W 046°19'0 0.1
2016-Apr-04 08:30S 24°09' W 046°19'0 0.1
2016-Apr-04 07:33S 24°09' W 046°19'0 0.0
2016-Apr-04 06:27S 24°09' W 046°19'0 0.0
2016-Apr-04 05:33S 24°09' W 046°19'0 0.0
2016-Apr-04 04:33S 24°09' W 046°19'0 0.0
2016-Apr-04 03:27S 24°09' W 046°19'0 0.0
2016-Apr-04 02:33S 24°09' W 046°19'0 0.0
2016-Apr-04 01:33S 24°09' W 046°19'0 0.0
2016-Apr-04 00:33S 24°09' W 046°19'0 0.0
2016-Apr-03 23:33S 24°09' W 046°19'0 0.0
2016-Apr-03 22:30S 24°09' W 046°19'0 0.0
2016-Apr-03 21:30S 24°09' W 046°19'0 0.0
2016-Apr-03 20:33S 24°09' W 046°19'0 0.0
2016-Apr-03 19:30S 24°09' W 046°19'0 0.0
2016-Apr-03 18:33S 24°09' W 046°19'0 0.0
2016-Apr-03 17:30S 24°09' W 046°19'0 0.0
2016-Apr-03 16:33S 24°09' W 046°19'0 0.0
2016-Apr-03 15:30S 24°09' W 046°19'0 0.0
2016-Apr-03 14:30S 24°09' W 046°19'0 0.0
2016-Apr-03 13:33S 24°09' W 046°19'0 0.1
2016-Apr-03 12:33S 24°09' W 046°19'0 0.1
2016-Apr-03 11:33S 24°09' W 046°19'0 0.1
2016-Apr-03 10:30S 24°09' W 046°19'0 0.0
2016-Apr-03 09:27S 24°09' W 046°19'0 0.1
2016-Apr-03 08:24S 24°09' W 046°19'0 0.1
2016-Apr-03 07:30S 24°09' W 046°19'0 0.0
2016-Apr-03 06:33S 24°09' W 046°19'0 0.0
2016-Apr-03 05:30S 24°09' W 046°19'0 0.0
2016-Apr-03 04:27S 24°09' W 046°19'0 0.0
2016-Apr-03 03:33S 24°09' W 046°19'0 0.0
2016-Apr-03 02:33S 24°09' W 046°19'0 0.0
2016-Apr-03 01:33S 24°09' W 046°19'0 0.0
2016-Apr-03 00:33S 24°09' W 046°19'0 0.0
2016-Apr-02 23:33S 24°09' W 046°19'0 0.0
2016-Apr-02 22:33S 24°09' W 046°19'0 0.0
2016-Apr-02 21:30S 24°09' W 046°19'  

Dump ship's entire track history